Hilham, Tennessee
Current Conditions -  °F | °C
As of 12:15 PM on Thursday 27 Nov 2014 (Local Time) from KSRB Reporting Station
Overcast Overcast  
Wind Chill: 30°   Ceiling: 2300
Heat Index: 36°   Visibility: 10mi
Dew Point: 28°   Wind: 7mph
Humidity: 75%   Direction: 330°NNW
Pressure: 30.33"   Gusts: NA
Location:  36.41°N, 85.44°W
Report Text: KSRB 271815Z AUTO 33006KT 10SM OVC023 02/M02 A3033 RMK
Loading
Personal Weather Stations






























Interactive Weather Map New forecast layout! Learn more

10-Day Weather Forecast

Advertisements
Track Severe Weather on mobile